Time;durP1;ratioP1;P1;durP2;ratioP2;P2;SDS_P1;SDS_P2;PMS_P1;PMS_P2;Temp;Humidity;BMP_temperature;BMP_pressure;BME280_temperature;BME280_humidity;BME280_pressure;Samples;Min_cycle;Max_cycle;Signal;HPM_P1;HPM_P2
2023/09/05 00:02:21;;;;;;;8.90;5.03;;;21.10;99.90;;;;;;5016666;28;20258;-81
2023/09/05 00:04:48;;;;;;;8.80;6.80;;;21.10;99.90;;;;;;5014036;28;20183;-82
2023/09/05 00:07:16;;;;;;;8.27;5.87;;;21.00;99.90;;;;;;5013680;28;20166;-82
2023/09/05 00:09:42;;;;;;;9.13;6.53;;;20.90;99.90;;;;;;5014054;28;20187;-82
2023/09/05 00:12:09;;;;;;;11.93;5.50;;;20.90;99.90;;;;;;5015608;28;20512;-81
2023/09/05 00:14:36;;;;;;;7.27;4.97;;;20.90;99.90;;;;;;5016268;28;20622;-82
2023/09/05 00:17:01;;;;;;;7.87;5.43;;;20.90;99.90;;;;;;5016139;28;20634;-81
2023/09/05 00:19:28;;;;;;;7.27;5.23;;;20.90;99.90;;;;;;5015276;28;20190;-81
2023/09/05 00:21:54;;;;;;;9.87;5.23;;;21.00;99.90;;;;;;5016330;28;20234;-81
2023/09/05 00:24:37;;;;;;;8.73;5.20;;;21.00;99.90;;;;;;5014475;28;20269;-81
2023/09/05 00:27:12;;;;;;;7.00;5.53;;;21.00;99.90;;;;;;5016510;28;20159;-82
2023/09/05 00:29:39;;;;;;;7.33;5.20;;;21.00;99.90;;;;;;5014374;28;20174;-81
2023/09/05 00:32:06;;;;;;;6.20;5.30;;;20.90;99.90;;;;;;5015276;28;20170;-81
2023/09/05 00:34:36;;;;;;;8.67;5.50;;;20.90;99.90;;;;;;5014309;28;20280;-81
2023/09/05 00:37:06;;;;;;;6.57;4.83;;;20.70;99.90;;;;;;5013338;28;20172;-81
2023/09/05 00:39:40;;;;;;;9.67;5.80;;;20.70;99.90;;;;;;5016116;28;20193;-81
2023/09/05 00:42:10;;;;;;;8.10;5.33;;;20.80;99.90;;;;;;5014575;28;20197;-80
2023/09/05 00:44:37;;;;;;;7.77;5.63;;;20.90;99.90;;;;;;5015839;28;20658;-81
2023/09/05 00:47:04;;;;;;;8.37;4.97;;;20.80;99.90;;;;;;5014425;28;20174;-82
2023/09/05 00:49:37;;;;;;;7.67;4.93;;;20.70;99.90;;;;;;5014220;28;20193;-79
2023/09/05 00:52:03;;;;;;;8.80;5.47;;;20.70;99.90;;;;;;5015443;28;20176;-81
2023/09/05 00:54:29;;;;;;;7.60;5.47;;;20.60;99.90;;;;;;5014286;28;20167;-80
2023/09/05 00:56:55;;;;;;;6.97;5.33;;;20.60;99.90;;;;;;5014133;28;20259;-81
2023/09/05 00:59:22;;;;;;;6.97;4.83;;;20.40;99.90;;;;;;5015552;28;20163;-80
2023/09/05 01:01:48;;;;;;;8.07;5.07;;;20.20;99.90;;;;;;5014092;28;20590;-81
2023/09/05 01:04:14;;;;;;;7.60;5.43;;;20.20;99.90;;;;;;5013907;28;20218;-80
2023/09/05 01:07:09;;;;;;;7.63;5.33;;;20.10;99.90;;;;;;5014201;28;20174;-82
2023/09/05 01:10:01;;;;;;;10.57;5.20;;;20.00;99.90;;;;;;5013623;28;20181;-81
2023/09/05 01:12:28;;;;;;;8.87;6.20;;;19.80;99.90;;;;;;5014475;28;20219;-79
2023/09/05 01:14:53;;;;;;;6.57;5.40;;;19.80;99.90;;;;;;5014858;28;20177;-79
2023/09/05 01:17:19;;;;;;;9.87;5.97;;;19.80;99.90;;;;;;5013607;28;20185;-82
2023/09/05 01:19:46;;;;;;;8.97;5.37;;;19.70;99.90;;;;;;5013321;28;20181;-82
2023/09/05 01:22:34;;;;;;;6.60;5.30;;;19.60;99.90;;;;;;5013516;28;20654;-81
2023/09/05 01:25:00;;;;;;;11.90;5.63;;;19.50;99.90;;;;;;5013546;28;20203;-80
2023/09/05 01:27:28;;;;;;;7.47;5.73;;;19.50;99.90;;;;;;5014691;28;20262;-81
2023/09/05 01:29:54;;;;;;;8.17;5.80;;;19.40;99.90;;;;;;5013462;28;20184;-80
2023/09/05 01:32:20;;;;;;;7.87;5.90;;;19.60;99.90;;;;;;5013320;28;20172;-81
2023/09/05 01:34:47;;;;;;;7.40;5.50;;;19.50;99.90;;;;;;5012522;28;20308;-81
2023/09/05 01:37:15;;;;;;;11.40;5.87;;;19.50;99.90;;;;;;5014327;28;20183;-81
2023/09/05 01:39:42;;;;;;;7.60;5.70;;;19.60;99.90;;;;;;5012438;28;20660;-81
2023/09/05 01:42:07;;;;;;;7.30;5.67;;;19.60;99.90;;;;;;5013783;28;20167;-80
2023/09/05 01:44:35;;;;;;;7.50;5.40;;;19.50;99.90;;;;;;5014347;28;20182;-81
2023/09/05 01:47:05;;;;;;;7.90;5.47;;;19.50;99.90;;;;;;5013560;28;20223;-81
2023/09/05 01:49:30;;;;;;;6.93;5.20;;;19.40;99.90;;;;;;5013788;28;20233;-82
2023/09/05 01:51:57;;;;;;;6.43;5.37;;;19.40;99.90;;;;;;5013393;28;20181;-81
2023/09/05 01:54:24;;;;;;;5.87;5.10;;;19.40;99.90;;;;;;5016622;28;20202;-81
2023/09/05 01:56:50;;;;;;;5.80;5.03;;;19.40;99.90;;;;;;5018179;28;20770;-80
2023/09/05 01:59:19;;;;;;;6.27;5.13;;;19.30;99.90;;;;;;5018990;28;20209;-81
2023/09/05 02:01:45;;;;;;;7.60;5.20;;;19.30;99.90;;;;;;5020222;28;20209;-81
2023/09/05 02:04:11;;;;;;;7.40;5.47;;;19.20;99.90;;;;;;5016886;28;20241;-80
2023/09/05 02:06:38;;;;;;;7.03;5.50;;;19.20;99.90;;;;;;5012840;28;20205;-81
2023/09/05 02:09:04;;;;;;;12.30;5.67;;;19.20;99.90;;;;;;5013024;28;20523;-82
2023/09/05 02:11:29;;;;;;;11.03;5.70;;;19.30;99.90;;;;;;5013744;28;20184;-81
2023/09/05 02:13:55;;;;;;;9.60;5.70;;;19.20;99.90;;;;;;5016652;28;20243;-81
2023/09/05 02:16:24;;;;;;;7.97;5.77;;;19.20;99.90;;;;;;5014455;28;20198;-80
2023/09/05 02:18:50;;;;;;;8.60;5.97;;;19.20;99.90;;;;;;5013748;28;20572;-79
2023/09/05 02:21:16;;;;;;;12.40;5.87;;;19.20;99.90;;;;;;5014870;28;20311;-80
2023/09/05 02:23:43;;;;;;;10.47;6.03;;;19.20;99.90;;;;;;5012617;28;20222;-80
2023/09/05 02:26:09;;;;;;;6.97;5.40;;;19.20;99.90;;;;;;5012464;28;20172;-81
2023/09/05 02:28:34;;;;;;;7.70;5.53;;;19.20;99.90;;;;;;5011913;28;20185;-81
2023/09/05 02:31:06;;;;;;;8.47;5.77;;;19.20;99.90;;;;;;5014238;28;20542;-80
2023/09/05 02:33:33;;;;;;;6.47;5.07;;;19.10;99.90;;;;;;5014386;28;20237;-81
2023/09/05 02:36:18;;;;;;;8.00;5.37;;;19.00;99.90;;;;;;5014747;28;20167;-80
2023/09/05 02:38:44;;;;;;;7.37;5.13;;;18.90;99.90;;;;;;5015613;28;20172;-80
2023/09/05 02:41:14;;;;;;;7.63;5.57;;;18.80;99.90;;;;;;5023770;28;20174;-81
2023/09/05 02:43:41;;;;;;;7.57;5.30;;;18.80;99.90;;;;;;5033490;28;20673;-81
2023/09/05 02:46:07;;;;;;;7.53;5.63;;;18.80;99.90;;;;;;5036415;28;20245;-79
2023/09/05 02:48:39;;;;;;;8.93;5.50;;;18.80;99.90;;;;;;5032911;28;20189;-80
2023/09/05 02:51:08;;;;;;;8.37;5.70;;;18.70;99.90;;;;;;5016211;28;20178;-81
2023/09/05 02:53:34;;;;;;;7.70;5.63;;;18.70;99.90;;;;;;5016508;28;20174;-80
2023/09/05 02:56:00;;;;;;;6.70;5.40;;;18.60;99.90;;;;;;5013677;28;20210;-81
2023/09/05 02:58:28;;;;;;;8.97;5.70;;;18.60;99.90;;;;;;5012793;28;20193;-80
2023/09/05 03:01:11;;;;;;;7.60;5.30;;;18.60;99.90;;;;;;5012552;28;20564;-80
2023/09/05 03:03:38;;;;;;;6.73;5.13;;;18.60;99.90;;;;;;5012946;28;20256;-79
2023/09/05 03:06:15;;;;;;;8.53;5.63;;;18.70;99.90;;;;;;5011578;28;20273;-80
2023/09/05 03:08:44;;;;;;;8.00;5.50;;;18.60;99.90;;;;;;5013108;28;20183;-81
2023/09/05 03:11:10;;;;;;;8.20;5.63;;;18.60;99.90;;;;;;5013961;28;20170;-82
2023/09/05 03:13:36;;;;;;;6.77;5.60;;;18.60;99.90;;;;;;5013802;28;20249;-81
2023/09/05 03:16:02;;;;;;;8.53;5.73;;;18.70;99.90;;;;;;4994785;28;20278;-80
2023/09/05 03:18:27;;;;;;;5.57;4.90;;;18.60;99.90;;;;;;5013407;28;20186;-82
2023/09/05 03:20:53;;;;;;;8.87;5.70;;;18.60;99.90;;;;;;5012576;28;20178;-81
2023/09/05 03:23:19;;;;;;;9.90;5.63;;;18.60;99.90;;;;;;5012267;28;20224;-81
2023/09/05 03:25:45;;;;;;;9.00;5.47;;;18.70;99.90;;;;;;5011886;28;20213;-81
2023/09/05 03:28:12;;;;;;;7.60;5.57;;;18.70;99.90;;;;;;5012080;28;20253;-81
2023/09/05 03:30:42;;;;;;;7.07;5.00;;;18.70;99.90;;;;;;5011284;28;20202;-81
2023/09/05 03:33:08;;;;;;;5.80;5.03;;;18.70;99.90;;;;;;5011272;28;20540;-80
2023/09/05 03:35:35;;;;;;;7.40;5.37;;;18.70;99.90;;;;;;5012027;28;20294;-79
2023/09/05 03:38:01;;;;;;;7.50;5.70;;;18.70;99.90;;;;;;5011249;28;20242;-80
2023/09/05 03:40:28;;;;;;;7.20;5.57;;;18.70;99.90;;;;;;5012173;28;20176;-81
2023/09/05 03:42:54;;;;;;;8.87;5.07;;;18.80;99.90;;;;;;5012861;28;20280;-80
2023/09/05 03:45:21;;;;;;;7.97;5.40;;;18.80;99.90;;;;;;5012193;28;20710;-80
2023/09/05 03:47:47;;;;;;;7.03;5.60;;;18.80;99.90;;;;;;5012751;28;20185;-80
2023/09/05 03:50:13;;;;;;;8.53;5.73;;;18.60;99.90;;;;;;5012781;28;20175;-80
2023/09/05 03:52:39;;;;;;;7.00;5.33;;;18.60;99.90;;;;;;5012541;28;20175;-80
2023/09/05 03:55:05;;;;;;;9.73;5.40;;;18.60;99.90;;;;;;5017264;28;20517;-80
2023/09/05 03:57:31;;;;;;;8.83;5.47;;;18.50;99.90;;;;;;5010848;28;20198;-80
2023/09/05 03:59:57;;;;;;;7.80;6.13;;;18.50;99.90;;;;;;5017133;28;20177;-79
2023/09/05 04:02:23;;;;;;;6.37;5.67;;;18.50;99.90;;;;;;5019894;28;20209;-80
2023/09/05 04:04:48;;;;;;;9.27;5.47;;;18.50;99.90;;;;;;5036925;28;20162;-81
2023/09/05 04:07:14;;;;;;;7.27;5.73;;;18.60;99.90;;;;;;5036526;28;20181;-80
2023/09/05 04:09:40;;;;;;;10.43;5.70;;;18.50;99.90;;;;;;5036766;28;20165;-80
2023/09/05 04:12:06;;;;;;;8.37;5.83;;;18.60;99.90;;;;;;5039362;28;20174;-82
2023/09/05 04:14:31;;;;;;;7.27;5.40;;;18.60;99.90;;;;;;5039932;28;20236;-80
2023/09/05 04:16:57;;;;;;;8.90;5.40;;;18.50;99.90;;;;;;5040241;28;20168;-81
2023/09/05 04:19:23;;;;;;;9.07;5.40;;;18.40;99.90;;;;;;5040525;28;20183;-81
2023/09/05 04:21:48;;;;;;;8.03;5.47;;;18.40;99.90;;;;;;5039766;28;20165;-80
2023/09/05 04:24:14;;;;;;;8.63;5.30;;;18.50;99.90;;;;;;5039774;28;20200;-81
2023/09/05 04:26:40;;;;;;;8.10;5.63;;;18.40;99.90;;;;;;5036448;28;20182;-81
2023/09/05 04:29:05;;;;;;;6.73;5.30;;;18.50;99.90;;;;;;5032673;28;20490;-79
2023/09/05 04:31:31;;;;;;;8.53;4.90;;;18.50;99.90;;;;;;5041007;28;20183;-81
2023/09/05 04:33:57;;;;;;;8.40;5.00;;;18.50;99.90;;;;;;5040493;28;20166;-81
2023/09/05 04:36:22;;;;;;;8.43;5.30;;;18.50;99.90;;;;;;5039320;28;20258;-81
2023/09/05 04:38:50;;;;;;;9.23;5.40;;;18.50;99.90;;;;;;5040223;28;20175;-80
2023/09/05 04:41:16;;;;;;;7.20;5.40;;;18.60;99.90;;;;;;5040041;28;20162;-80
2023/09/05 04:43:41;;;;;;;8.43;5.43;;;18.50;99.90;;;;;;5039525;28;20207;-81
2023/09/05 04:46:09;;;;;;;6.13;4.70;;;18.50;99.90;;;;;;5037842;28;20222;-81
2023/09/05 04:48:35;;;;;;;10.37;5.60;;;18.40;99.90;;;;;;5039373;28;20196;-81
2023/09/05 04:51:03;;;;;;;6.97;5.00;;;18.40;99.90;;;;;;5039102;28;20179;-80
2023/09/05 04:53:30;;;;;;;9.37;5.37;;;18.30;99.90;;;;;;5022291;28;20253;-80
2023/09/05 04:56:00;;;;;;;6.40;4.87;;;18.30;99.90;;;;;;5038113;28;20202;-80
2023/09/05 04:58:27;;;;;;;7.90;5.57;;;18.20;99.90;;;;;;5039582;28;20254;-79
2023/09/05 05:00:56;;;;;;;9.70;5.37;;;18.20;99.90;;;;;;5026669;28;20173;-81
2023/09/05 05:03:24;;;;;;;11.30;5.90;;;18.10;99.90;;;;;;5029223;28;20196;-80
2023/09/05 05:05:52;;;;;;;8.70;5.67;;;18.00;99.90;;;;;;5027056;28;20182;-81
2023/09/05 05:08:19;;;;;;;10.27;5.67;;;18.00;99.90;;;;;;5031196;28;20180;-80
2023/09/05 05:10:48;;;;;;;11.30;5.40;;;18.10;99.90;;;;;;5030077;28;20172;-81
2023/09/05 05:13:19;;;;;;;8.80;5.50;;;18.20;99.90;;;;;;5032078;28;20163;-81
2023/09/05 05:16:37;;;;;;;8.93;5.10;;;18.10;99.90;;;;;;5034104;28;20154;-81
2023/09/05 05:19:10;;;;;;;12.20;5.50;;;18.20;99.90;;;;;;5036314;28;20155;-82
2023/09/05 05:21:39;;;;;;;17.07;5.60;;;18.20;99.90;;;;;;5033184;28;20170;-81
2023/09/05 05:24:07;;;;;;;9.57;5.00;;;18.20;99.90;;;;;;5028980;28;20206;-81
2023/09/05 05:26:33;;;;;;;8.60;4.70;;;18.30;99.90;;;;;;5029729;28;20151;-81
2023/09/05 05:32:53;;;;;;;9.47;5.13;;;18.40;99.90;;;;;;5029935;28;20253;-81
2023/09/05 05:39:01;;;;;;;8.27;4.60;;;18.50;99.90;;;;;;5036008;28;20206;-81
2023/09/05 05:41:28;;;;;;;8.73;4.27;;;18.60;99.90;;;;;;5026650;28;20165;-77
2023/09/05 05:44:07;;;;;;;10.27;4.87;;;18.80;99.90;;;;;;5029510;28;20186;-85
2023/09/05 05:46:33;;;;;;;7.10;4.07;;;18.80;99.90;;;;;;5033579;28;20234;-82
2023/09/05 05:48:59;;;;;;;10.00;4.17;;;18.80;99.90;;;;;;5031538;28;20184;-82
2023/09/05 05:51:26;;;;;;;8.87;4.73;;;18.90;99.90;;;;;;5017448;28;20189;-83
2023/09/05 05:53:52;;;;;;;12.13;4.43;;;19.00;99.90;;;;;;5015822;28;20604;-84
2023/09/05 05:56:18;;;;;;;9.63;4.43;;;19.10;99.90;;;;;;5013993;28;20232;-83
2023/09/05 05:58:56;;;;;;;12.90;4.77;;;19.30;99.90;;;;;;5016332;28;20566;-84
2023/09/05 06:01:24;;;;;;;9.87;4.23;;;19.40;99.90;;;;;;5016437;28;20179;-85
2023/09/05 06:03:55;;;;;;;10.70;4.80;;;19.50;99.90;;;;;;5016492;28;20211;-85
2023/09/05 06:06:21;;;;;;;10.00;5.10;;;19.60;99.90;;;;;;5015282;28;20179;-82
2023/09/05 06:08:48;;;;;;;13.27;4.80;;;19.70;99.90;;;;;;5021947;28;20179;-84
2023/09/05 06:11:17;;;;;;;11.00;4.93;;;19.80;99.90;;;;;;5025418;28;20184;-84
2023/09/05 06:13:43;;;;;;;11.50;4.77;;;19.80;99.90;;;;;;5022662;28;20183;-85
2023/09/05 06:16:09;;;;;;;8.23;4.77;;;19.90;99.90;;;;;;5014946;28;20520;-82
2023/09/05 06:18:35;;;;;;;8.73;4.80;;;20.00;99.90;;;;;;5017457;28;20239;-88
2023/09/05 06:21:01;;;;;;;9.87;4.40;;;20.10;99.90;;;;;;5016478;28;20648;-85
2023/09/05 06:23:29;;;;;;;9.53;4.37;;;20.20;99.90;;;;;;5014470;28;20671;-84
2023/09/05 06:25:54;;;;;;;9.63;4.37;;;20.30;99.90;;;;;;5015613;28;20173;-85
2023/09/05 06:28:24;;;;;;;11.07;4.20;;;20.40;99.90;;;;;;5015922;28;20260;-88
2023/09/05 06:30:50;;;;;;;10.17;4.53;;;20.40;99.90;;;;;;5015674;28;20622;-86
2023/09/05 06:33:16;;;;;;;10.80;4.43;;;20.40;99.90;;;;;;5015961;28;20199;-87
2023/09/05 06:35:42;;;;;;;10.50;4.60;;;20.50;99.90;;;;;;5017493;28;20188;-88
2023/09/05 06:38:08;;;;;;;11.47;4.67;;;20.60;99.90;;;;;;5017311;28;20178;-84
2023/09/05 06:40:33;;;;;;;10.17;4.37;;;20.60;99.90;;;;;;5015033;28;20178;-87
2023/09/05 06:42:59;;;;;;;10.83;4.50;;;20.70;99.90;;;;;;5017138;28;20297;-87
2023/09/05 06:45:26;;;;;;;11.07;4.30;;;20.60;99.90;;;;;;5015446;28;20587;-87
2023/09/05 06:47:52;;;;;;;15.80;5.60;;;20.70;99.90;;;;;;5017271;28;20177;-86
2023/09/05 06:50:18;;;;;;;10.60;4.80;;;20.70;99.90;;;;;;5019899;28;20641;-88
2023/09/05 06:52:49;;;;;;;9.20;4.20;;;20.80;99.90;;;;;;5026233;28;20195;-87
2023/09/05 06:55:15;;;;;;;8.27;3.53;;;21.00;99.90;;;;;;5004214;28;20198;-87
2023/09/05 06:57:43;;;;;;;9.13;3.90;;;21.20;99.90;;;;;;5016071;28;20194;-86
2023/09/05 07:00:10;;;;;;;9.07;4.03;;;21.30;99.90;;;;;;5015328;28;20173;-84
2023/09/05 07:02:36;;;;;;;17.50;4.83;;;21.40;99.90;;;;;;5017105;28;20229;-84
2023/09/05 07:05:03;;;;;;;9.97;4.00;;;21.50;99.90;;;;;;5014425;28;20183;-84
2023/09/05 07:07:28;;;;;;;9.57;3.97;;;21.50;99.90;;;;;;5015647;28;20249;-83
2023/09/05 07:09:54;;;;;;;8.77;4.13;;;21.60;99.90;;;;;;5014280;28;20225;-84
2023/09/05 07:12:20;;;;;;;9.50;3.53;;;21.80;99.90;;;;;;5013984;28;20185;-84
2023/09/05 07:14:46;;;;;;;8.43;3.50;;;21.90;99.90;;;;;;5013401;28;20228;-85
2023/09/05 07:17:11;;;;;;;10.30;3.80;;;22.20;99.90;;;;;;5015647;28;20572;-84
2023/09/05 07:19:37;;;;;;;6.70;3.07;;;22.40;99.90;;;;;;5016244;28;20270;-85
2023/09/05 07:22:04;;;;;;;9.00;3.50;;;22.60;99.90;;;;;;5016609;28;20167;-84
2023/09/05 07:24:30;;;;;;;7.07;3.07;;;22.70;99.90;;;;;;5015409;28;20211;-84
2023/09/05 07:26:56;;;;;;;8.43;3.20;;;22.80;99.90;;;;;;5016524;28;20177;-83
2023/09/05 07:29:23;;;;;;;5.30;3.33;;;22.90;99.90;;;;;;5015424;28;20179;-84
2023/09/05 07:31:49;;;;;;;6.30;2.90;;;23.10;99.90;;;;;;5015893;28;20182;-83
2023/09/05 07:34:15;;;;;;;10.20;2.47;;;23.20;99.90;;;;;;5015863;28;20216;-85
2023/09/05 07:36:41;;;;;;;6.73;2.90;;;23.30;99.90;;;;;;5016907;28;20185;-84
2023/09/05 07:39:09;;;;;;;8.53;3.27;;;23.40;99.90;;;;;;5018409;28;20170;-85
2023/09/05 07:41:36;;;;;;;5.63;2.70;;;23.60;99.90;;;;;;5018788;28;20293;-87
2023/09/05 07:44:04;;;;;;;7.93;2.80;;;23.60;99.90;;;;;;5016472;28;20233;-88
2023/09/05 07:46:30;;;;;;;6.97;2.70;;;23.80;99.90;;;;;;5024527;28;20189;-88
2023/09/05 07:48:56;;;;;;;5.17;2.40;;;24.00;99.90;;;;;;5023473;28;20186;-88
2023/09/05 07:51:22;;;;;;;4.53;2.60;;;24.20;99.90;;;;;;5023430;28;20684;-88
2023/09/05 07:54:04;;;;;;;5.23;2.43;;;24.40;99.90;;;;;;5022108;28;20213;-87
2023/09/05 07:56:30;;;;;;;4.80;2.23;;;24.30;99.90;;;;;;5020919;28;20200;-87
2023/09/05 07:58:56;;;;;;;5.73;2.60;;;24.30;99.90;;;;;;5020660;28;20276;-88
2023/09/05 08:01:22;;;;;;;6.53;2.50;;;24.40;99.90;;;;;;5019185;28;20576;-88
2023/09/05 08:03:48;;;;;;;7.63;2.60;;;24.50;99.90;;;;;;5018356;28;20701;-88
2023/09/05 08:06:14;;;;;;;6.03;2.80;;;24.70;99.90;;;;;;5019379;28;20537;-88
2023/09/05 08:08:40;;;;;;;5.40;2.50;;;24.80;99.90;;;;;;5020457;28;20208;-88
2023/09/05 08:11:05;;;;;;;3.97;2.60;;;25.00;99.90;;;;;;5020357;28;20267;-87
2023/09/05 08:13:31;;;;;;;4.97;2.50;;;25.20;99.90;;;;;;5019875;28;20177;-87
2023/09/05 08:15:57;;;;;;;4.97;2.33;;;25.30;99.90;;;;;;5018735;28;20182;-88
2023/09/05 08:18:24;;;;;;;4.47;2.13;;;25.60;99.90;;;;;;5018027;28;20325;-88
2023/09/05 08:20:50;;;;;;;3.97;2.00;;;25.60;99.90;;;;;;5018186;28;20205;-88
2023/09/05 08:23:15;;;;;;;3.60;2.37;;;25.70;99.90;;;;;;5018639;28;20710;-87
2023/09/05 08:25:41;;;;;;;3.10;2.10;;;25.80;99.90;;;;;;5018867;28;20213;-87
2023/09/05 08:28:07;;;;;;;8.50;2.93;;;25.90;99.90;;;;;;5019254;28;20175;-88
2023/09/05 08:30:36;;;;;;;5.97;2.10;;;26.10;99.90;;;;;;5017779;28;20170;-87
2023/09/05 08:33:03;;;;;;;4.17;1.93;;;25.90;99.90;;;;;;5019061;28;20202;-88
2023/09/05 08:35:30;;;;;;;4.13;2.10;;;25.80;99.90;;;;;;5016473;28;20661;-88
2023/09/05 08:37:57;;;;;;;4.13;2.27;;;25.80;99.90;;;;;;5016669;28;20250;-89
2023/09/05 08:40:23;;;;;;;3.63;2.20;;;25.90;99.90;;;;;;5016441;28;20176;-88
2023/09/05 08:42:53;;;;;;;3.23;2.13;;;26.10;99.90;;;;;;5015443;28;20204;-88
2023/09/05 08:45:22;;;;;;;3.23;1.93;;;26.10;99.90;;;;;;5017651;28;20167;-88
2023/09/05 08:47:49;;;;;;;4.53;2.30;;;26.00;99.90;;;;;;5017992;28;20179;-87
2023/09/05 08:50:15;;;;;;;3.90;1.83;;;25.70;99.90;;;;;;5017096;28;20178;-88
2023/09/05 08:52:42;;;;;;;4.40;2.20;;;25.90;99.90;;;;;;5017006;28;20690;-87
2023/09/05 08:55:10;;;;;;;5.93;2.10;;;26.00;99.90;;;;;;5027983;28;20205;-88
2023/09/05 08:57:40;;;;;;;8.00;2.50;;;26.00;99.90;;;;;;5030553;28;20196;-87
2023/09/05 09:00:07;;;;;;;6.50;2.90;;;26.30;99.90;;;;;;5035962;28;20151;-87
2023/09/05 09:02:35;;;;;;;3.37;2.13;;;26.30;99.90;;;;;;5035467;28;20210;-87
2023/09/05 09:05:02;;;;;;;4.03;2.30;;;26.20;99.90;;;;;;5021850;28;20178;-86
2023/09/05 09:07:29;;;;;;;4.73;2.37;;;26.20;99.90;;;;;;5029670;28;20184;-87
2023/09/05 09:09:57;;;;;;;6.07;2.13;;;26.30;99.90;;;;;;5021581;28;20179;-89
2023/09/05 09:12:33;;;;;;;3.38;1.98;;;26.30;99.90;;;;;;5018004;28;20202;-88
2023/09/05 09:15:09;;;;;;;3.97;2.10;;;26.40;99.90;;;;;;5018333;28;20231;-89
2023/09/05 09:17:36;;;;;;;8.07;2.47;;;26.60;99.90;;;;;;5018121;28;20194;-89
2023/09/05 09:20:19;;;;;;;5.75;2.65;;;26.80;99.90;;;;;;5017210;28;20181;-89
2023/09/05 09:22:45;;;;;;;6.43;2.50;;;26.70;99.90;;;;;;5015563;28;20206;-85
2023/09/05 09:25:20;;;;;;;4.15;2.53;;;26.80;99.90;;;;;;5020900;28;20174;-85
2023/09/05 09:27:58;;;;;;;8.38;2.63;;;26.90;99.90;;;;;;5021539;28;20182;-85
2023/09/05 09:30:27;;;;;;;3.83;2.28;;;26.90;99.90;;;;;;5000011;28;20204;-87
2023/09/05 09:32:56;;;;;;;6.85;2.33;;;26.70;99.90;;;;;;5017617;28;20261;-89
2023/09/05 09:35:23;;;;;;;3.45;2.25;;;26.70;99.90;;;;;;5017951;28;20209;-86
2023/09/05 09:37:49;;;;;;;3.42;2.10;;;26.80;99.90;;;;;;5018289;28;20182;-88
2023/09/05 09:40:17;;;;;;;11.30;2.88;;;26.90;99.90;;;;;;5015683;28;20232;-87
2023/09/05 09:42:50;;;;;;;4.78;2.50;;;26.80;99.90;;;;;;5014273;28;20217;-86
2023/09/05 09:45:16;;;;;;;4.40;2.30;;;26.70;99.90;;;;;;5018472;28;20584;-88
2023/09/05 09:47:52;;;;;;;5.93;2.58;;;26.80;99.90;;;;;;5018271;28;20178;-89
2023/09/05 09:50:21;;;;;;;6.35;2.85;;;27.00;99.90;;;;;;5026251;28;20174;-87
2023/09/05 09:52:59;;;;;;;4.30;2.42;;;27.30;99.90;;;;;;5028658;28;20225;-90
2023/09/05 09:55:31;;;;;;;15.98;2.85;;;27.50;99.90;;;;;;5029364;28;20198;-84
2023/09/05 09:58:03;;;;;;;24.35;3.70;;;27.40;99.90;;;;;;5028697;28;20569;-85
2023/09/05 10:00:35;;;;;;;8.95;2.80;;;27.50;99.90;;;;;;5032470;28;20184;-89
2023/09/05 10:03:04;;;;;;;7.20;2.20;;;27.50;99.90;;;;;;5027404;28;20209;-87
2023/09/05 10:05:31;;;;;;;3.42;2.20;;;27.60;99.90;;;;;;5028626;28;20338;-87
2023/09/05 10:07:58;;;;;;;7.53;2.50;;;27.60;99.90;;;;;;5028041;28;20178;-87
2023/09/05 10:10:25;;;;;;;3.78;2.45;;;27.50;99.90;;;;;;5030140;28;20174;-87
2023/09/05 10:12:54;;;;;;;6.65;2.40;;;27.50;99.90;;;;;;5032944;28;20166;-87
2023/09/05 10:15:21;;;;;;;5.95;2.33;;;27.70;99.90;;;;;;5033429;28;20248;-86
2023/09/05 10:17:48;;;;;;;7.35;3.05;;;27.60;99.90;;;;;;5037176;28;20190;-87
2023/09/05 10:20:19;;;;;;;4.90;2.42;;;27.80;99.90;;;;;;5030960;28;20178;-86
2023/09/05 10:22:46;;;;;;;9.48;2.45;;;27.80;99.90;;;;;;5029938;28;20259;-85
2023/09/05 10:25:15;;;;;;;5.32;2.50;;;27.70;99.90;;;;;;5035827;28;20158;-86
2023/09/05 10:27:42;;;;;;;3.95;2.65;;;27.70;99.90;;;;;;5036025;28;20177;-86
2023/09/05 10:30:10;;;;;;;4.68;2.58;;;27.90;99.90;;;;;;5037858;28;20174;-86
2023/09/05 10:32:37;;;;;;;4.13;2.40;;;27.80;99.90;;;;;;5037264;28;20177;-86
2023/09/05 10:35:03;;;;;;;4.32;2.50;;;27.90;99.90;;;;;;5035786;28;20176;-87
2023/09/05 10:37:35;;;;;;;4.93;2.50;;;27.90;99.90;;;;;;5032320;28;20609;-88
2023/09/05 10:40:09;;;;;;;14.38;3.40;;;27.60;99.90;;;;;;5026415;28;20174;-88
2023/09/05 10:42:45;;;;;;;8.13;2.75;;;27.70;99.90;;;;;;5022171;28;20225;-87
2023/09/05 10:45:27;;;;;;;6.63;3.05;;;27.60;99.90;;;;;;5003333;28;20208;-87
2023/09/05 10:48:00;;;;;;;4.20;2.50;;;27.70;99.90;;;;;;5019055;28;20182;-88
2023/09/05 10:50:29;;;;;;;6.45;2.72;;;27.70;99.90;;;;;;5020698;28;20181;-88
2023/09/05 10:53:15;;;;;;;6.55;2.80;;;27.90;99.90;;;;;;5017740;28;20565;-88
2023/09/05 10:55:49;;;;;;;5.85;2.78;;;28.20;99.90;;;;;;5010105;28;20202;-88
2023/09/05 10:58:54;;;;;;;7.55;2.83;;;28.40;99.90;;;;;;5021693;28;20185;-87
2023/09/05 11:01:32;;;;;;;7.70;3.03;;;28.60;99.90;;;;;;5028253;28;20293;-87
2023/09/05 11:04:10;;;;;;;7.72;2.67;;;28.50;99.90;;;;;;5029776;28;20210;-84
2023/09/05 11:06:36;;;;;;;7.10;3.60;;;28.40;99.90;;;;;;5010226;28;20171;-84
2023/09/05 11:09:06;;;;;;;4.90;2.65;;;28.50;99.90;;;;;;5029769;28;20173;-84
2023/09/05 11:11:51;;;;;;;9.10;3.33;;;28.30;99.90;;;;;;5025287;28;20261;-87
2023/09/05 11:14:32;;;;;;;5.30;2.55;;;28.20;99.90;;;;;;5017620;28;20166;-87
2023/09/05 11:16:58;;;;;;;4.22;2.30;;;28.00;99.90;;;;;;5018392;28;20192;-86
2023/09/05 11:19:35;;;;;;;5.50;3.25;;;28.00;99.90;;;;;;5024175;28;20182;-84
2023/09/05 11:22:11;;;;;;;5.85;2.45;;;28.00;99.90;;;;;;5032108;28;20176;-86
2023/09/05 11:24:45;;;;;;;5.47;2.55;;;28.30;99.90;;;;;;5034195;28;20209;-85
2023/09/05 11:27:22;;;;;;;7.70;2.97;;;28.60;99.90;;;;;;5039556;28;20173;-87
2023/09/05 11:29:55;;;;;;;7.30;2.45;;;28.70;1.00;;;;;;5030735;28;20241;-88
2023/09/05 11:32:35;;;;;;;7.45;2.83;;;28.60;1.00;;;;;;5026869;28;20178;-87
2023/09/05 11:35:05;;;;;;;5.60;2.78;;;28.70;1.00;;;;;;5033040;28;20229;-87
2023/09/05 11:37:33;;;;;;;6.97;2.45;;;28.70;1.00;;;;;;5033903;28;20182;-89
2023/09/05 11:40:17;;;;;;;10.93;2.63;;;28.70;1.00;;;;;;5033958;28;20178;-86
2023/09/05 11:42:43;;;;;;;6.65;2.88;;;28.80;1.00;;;;;;5038613;28;20218;-88
2023/09/05 11:45:19;;;;;;;5.28;2.55;;;29.10;1.00;;;;;;5028348;28;20197;-89
2023/09/05 11:47:46;;;;;;;8.13;2.58;;;29.40;1.00;;;;;;5018534;28;20170;-87
2023/09/05 11:50:14;;;;;;;4.85;2.58;;;29.40;1.00;;;;;;5028492;28;20178;-87
2023/09/05 11:52:40;;;;;;;5.35;2.55;;;29.60;99.90;;;;;;5017914;28;20177;-87
2023/09/05 11:55:06;;;;;;;6.93;2.67;;;29.50;99.90;;;;;;5025889;28;20181;-87
2023/09/05 11:57:33;;;;;;;7.75;2.90;;;29.40;1.00;;;;;;5019873;28;20269;-84
2023/09/05 12:00:15;;;;;;;6.10;2.70;;;29.50;1.00;;;;;;5022434;28;20166;-89
2023/09/05 12:02:49;;;;;;;3.67;2.30;;;29.60;1.00;;;;;;5023925;28;20197;-89
2023/09/05 12:05:20;;;;;;;7.03;2.42;;;29.40;99.90;;;;;;5020084;28;20209;-89
2023/09/05 12:07:58;;;;;;;6.78;2.58;;;29.20;99.90;;;;;;5022588;28;20181;-88
2023/09/05 12:10:41;;;;;;;7.80;2.92;;;29.40;99.90;;;;;;5007625;28;20193;-89
2023/09/05 12:13:09;;;;;;;6.43;2.55;;;29.70;99.90;;;;;;5023431;28;20661;-89
2023/09/05 12:15:37;;;;;;;5.90;2.92;;;29.90;99.90;;;;;;5023720;28;20228;-86
2023/09/05 12:18:09;;;;;;;6.07;2.47;;;30.00;99.90;;;;;;5022546;28;20181;-88
2023/09/05 12:20:36;;;;;;;4.13;2.33;;;30.20;99.90;;;;;;5023533;28;20182;-86
2023/09/05 12:23:03;;;;;;;5.65;2.40;;;30.00;99.90;;;;;;5021838;28;20202;-88
2023/09/05 12:25:29;;;;;;;5.50;2.47;;;29.90;99.90;;;;;;5020913;28;20174;-88
2023/09/05 12:28:16;;;;;;;5.13;2.67;;;29.90;99.90;;;;;;5023769;28;20665;-89
2023/09/05 12:30:42;;;;;;;5.70;2.50;;;30.10;99.90;;;;;;5021267;28;20174;-88
2023/09/05 12:33:08;;;;;;;5.22;2.38;;;30.30;99.90;;;;;;5020473;28;20587;-88
2023/09/05 12:35:34;;;;;;;4.72;2.30;;;30.40;99.90;;;;;;5023923;28;20194;-84
2023/09/05 12:38:02;;;;;;;7.18;2.88;;;30.60;99.90;;;;;;5026120;28;20181;-83
2023/09/05 12:40:28;;;;;;;5.72;2.65;;;30.80;99.90;;;;;;5019332;28;20248;-83
2023/09/05 12:42:55;;;;;;;5.13;2.67;;;30.90;99.90;;;;;;5026260;28;20205;-88
2023/09/05 12:45:21;;;;;;;4.15;2.30;;;30.90;99.90;;;;;;5026769;28;20174;-87
2023/09/05 12:47:51;;;;;;;3.67;2.38;;;30.90;99.90;;;;;;5030501;28;20178;-88
2023/09/05 12:50:21;;;;;;;5.10;2.03;;;31.00;99.90;;;;;;5038943;28;20165;-87
2023/09/05 12:52:48;;;;;;;12.93;3.65;;;31.20;99.90;;;;;;5040115;28;20163;-87
2023/09/05 12:55:15;;;;;;;5.82;3.00;;;31.30;57.30;;;;;;5037577;28;20173;-87
2023/09/05 12:57:46;;;;;;;6.85;3.05;;;31.40;1.00;;;;;;5038964;28;20209;-87
2023/09/05 13:00:26;;;;;;;6.25;2.70;;;31.30;40.10;;;;;;5039623;28;20197;-87
2023/09/05 13:03:02;;;;;;;5.40;2.47;;;31.40;53.20;;;;;;5039330;28;20197;-87